sensor_id;sensor_type;location;lat;lon;timestamp;P1;durP1;ratioP1;P2;durP2;ratioP2
63316;SDS011;49822;41.468;13.560;2024-01-07T00:02:09;16.80;;;7.50;;
63316;SDS011;49822;41.468;13.560;2024-01-07T00:04:35;18.02;;;8.57;;
63316;SDS011;49822;41.468;13.560;2024-01-07T00:09:51;18.48;;;9.15;;
63316;SDS011;49822;41.468;13.560;2024-01-07T00:12:17;15.80;;;8.75;;
63316;SDS011;49822;41.468;13.560;2024-01-07T00:14:43;12.75;;;7.57;;
63316;SDS011;49822;41.468;13.560;2024-01-07T00:17:10;14.93;;;7.55;;
63316;SDS011;49822;41.468;13.560;2024-01-07T00:19:36;10.65;;;6.50;;
63316;SDS011;49822;41.468;13.560;2024-01-07T00:22:03;10.55;;;5.80;;
63316;SDS011;49822;41.468;13.560;2024-01-07T00:24:32;10.63;;;6.07;;
63316;SDS011;49822;41.468;13.560;2024-01-07T00:26:58;15.20;;;6.40;;
63316;SDS011;49822;41.468;13.560;2024-01-07T00:29:24;10.30;;;5.95;;
63316;SDS011;49822;41.468;13.560;2024-01-07T00:31:51;11.98;;;6.35;;
63316;SDS011;49822;41.468;13.560;2024-01-07T00:34:17;12.00;;;6.13;;
63316;SDS011;49822;41.468;13.560;2024-01-07T00:36:43;12.65;;;7.00;;
63316;SDS011;49822;41.468;13.560;2024-01-07T00:39:10;13.77;;;7.43;;
63316;SDS011;49822;41.468;13.560;2024-01-07T00:41:38;12.73;;;6.72;;
63316;SDS011;49822;41.468;13.560;2024-01-07T00:44:04;17.38;;;6.45;;
63316;SDS011;49822;41.468;13.560;2024-01-07T00:46:30;10.85;;;6.25;;
63316;SDS011;49822;41.468;13.560;2024-01-07T00:48:57;10.02;;;5.85;;
63316;SDS011;49822;41.468;13.560;2024-01-07T00:51:23;13.68;;;6.35;;
63316;SDS011;49822;41.468;13.560;2024-01-07T00:53:50;15.00;;;6.55;;
63316;SDS011;49822;41.468;13.560;2024-01-07T00:56:16;17.88;;;6.68;;
63316;SDS011;49822;41.468;13.560;2024-01-07T00:58:42;12.20;;;3.72;;
63316;SDS011;49822;41.468;13.560;2024-01-07T01:01:08;14.05;;;6.45;;
63316;SDS011;49822;41.468;13.560;2024-01-07T01:03:35;13.93;;;5.28;;
63316;SDS011;49822;41.468;13.560;2024-01-07T01:06:02;9.88;;;5.15;;
63316;SDS011;49822;41.468;13.560;2024-01-07T01:08:29;9.27;;;4.65;;
63316;SDS011;49822;41.468;13.560;2024-01-07T01:10:55;9.60;;;4.70;;
63316;SDS011;49822;41.468;13.560;2024-01-07T01:13:23;10.27;;;5.28;;
63316;SDS011;49822;41.468;13.560;2024-01-07T01:15:49;13.75;;;5.35;;
63316;SDS011;49822;41.468;13.560;2024-01-07T01:18:18;14.38;;;5.38;;
63316;SDS011;49822;41.468;13.560;2024-01-07T01:20:45;11.27;;;5.55;;
63316;SDS011;49822;41.468;13.560;2024-01-07T01:23:11;11.20;;;5.82;;
63316;SDS011;49822;41.468;13.560;2024-01-07T01:25:37;13.20;;;5.80;;
63316;SDS011;49822;41.468;13.560;2024-01-07T01:28:05;12.93;;;6.30;;
63316;SDS011;49822;41.468;13.560;2024-01-07T01:30:31;14.18;;;6.32;;
63316;SDS011;49822;41.468;13.560;2024-01-07T01:33:17;13.13;;;6.18;;
63316;SDS011;49822;41.468;13.560;2024-01-07T01:35:43;10.27;;;5.30;;
63316;SDS011;49822;41.468;13.560;2024-01-07T01:38:09;16.05;;;7.05;;
63316;SDS011;49822;41.468;13.560;2024-01-07T01:40:35;24.80;;;10.45;;
63316;SDS011;49822;41.468;13.560;2024-01-07T01:43:02;19.67;;;8.35;;
63316;SDS011;49822;41.468;13.560;2024-01-07T01:45:30;13.68;;;6.15;;
63316;SDS011;49822;41.468;13.560;2024-01-07T01:48:00;15.95;;;7.55;;
63316;SDS011;49822;41.468;13.560;2024-01-07T01:50:26;12.95;;;5.57;;
63316;SDS011;49822;41.468;13.560;2024-01-07T01:52:53;9.80;;;5.25;;
63316;SDS011;49822;41.468;13.560;2024-01-07T01:55:21;9.85;;;4.72;;
63316;SDS011;49822;41.468;13.560;2024-01-07T01:57:48;7.40;;;4.28;;
63316;SDS011;49822;41.468;13.560;2024-01-07T02:00:20;12.82;;;5.53;;
63316;SDS011;49822;41.468;13.560;2024-01-07T02:02:52;11.57;;;4.93;;
63316;SDS011;49822;41.468;13.560;2024-01-07T02:05:18;11.10;;;5.45;;
63316;SDS011;49822;41.468;13.560;2024-01-07T02:07:44;10.23;;;5.40;;
63316;SDS011;49822;41.468;13.560;2024-01-07T02:10:11;13.75;;;6.10;;
63316;SDS011;49822;41.468;13.560;2024-01-07T02:12:39;13.80;;;6.00;;
63316;SDS011;49822;41.468;13.560;2024-01-07T02:15:06;10.30;;;6.03;;
63316;SDS011;49822;41.468;13.560;2024-01-07T02:17:32;11.68;;;5.47;;
63316;SDS011;49822;41.468;13.560;2024-01-07T02:19:58;12.27;;;5.60;;
63316;SDS011;49822;41.468;13.560;2024-01-07T02:22:25;15.38;;;6.60;;
63316;SDS011;49822;41.468;13.560;2024-01-07T02:24:51;22.00;;;8.65;;
63316;SDS011;49822;41.468;13.560;2024-01-07T02:27:17;14.45;;;6.85;;
63316;SDS011;49822;41.468;13.560;2024-01-07T02:29:43;13.93;;;6.35;;
63316;SDS011;49822;41.468;13.560;2024-01-07T02:32:09;14.25;;;6.35;;
63316;SDS011;49822;41.468;13.560;2024-01-07T02:38:23;6.65;;;3.80;;
63316;SDS011;49822;41.468;13.560;2024-01-07T02:40:49;8.38;;;4.50;;
63316;SDS011;49822;41.468;13.560;2024-01-07T02:46:35;10.02;;;4.72;;
63316;SDS011;49822;41.468;13.560;2024-01-07T02:49:07;9.10;;;4.57;;
63316;SDS011;49822;41.468;13.560;2024-01-07T02:51:34;9.77;;;4.00;;
63316;SDS011;49822;41.468;13.560;2024-01-07T02:54:00;6.75;;;3.40;;
63316;SDS011;49822;41.468;13.560;2024-01-07T02:56:26;11.18;;;4.78;;
63316;SDS011;49822;41.468;13.560;2024-01-07T02:58:52;8.95;;;4.65;;
63316;SDS011;49822;41.468;13.560;2024-01-07T03:01:21;8.10;;;4.03;;
63316;SDS011;49822;41.468;13.560;2024-01-07T03:03:48;9.10;;;4.00;;
63316;SDS011;49822;41.468;13.560;2024-01-07T03:06:16;19.33;;;5.65;;
63316;SDS011;49822;41.468;13.560;2024-01-07T03:08:42;14.65;;;6.22;;
63316;SDS011;49822;41.468;13.560;2024-01-07T03:11:09;15.57;;;5.05;;
63316;SDS011;49822;41.468;13.560;2024-01-07T03:13:35;11.70;;;4.35;;
63316;SDS011;49822;41.468;13.560;2024-01-07T03:16:01;9.02;;;4.18;;
63316;SDS011;49822;41.468;13.560;2024-01-07T03:18:28;14.93;;;6.80;;
63316;SDS011;49822;41.468;13.560;2024-01-07T03:20:55;9.95;;;4.97;;
63316;SDS011;49822;41.468;13.560;2024-01-07T03:23:21;9.65;;;5.28;;
63316;SDS011;49822;41.468;13.560;2024-01-07T03:25:48;11.68;;;5.53;;
63316;SDS011;49822;41.468;13.560;2024-01-07T03:28:14;10.68;;;5.10;;
63316;SDS011;49822;41.468;13.560;2024-01-07T03:30:41;11.40;;;5.25;;
63316;SDS011;49822;41.468;13.560;2024-01-07T03:33:10;13.13;;;5.65;;
63316;SDS011;49822;41.468;13.560;2024-01-07T03:35:37;9.52;;;3.55;;
63316;SDS011;49822;41.468;13.560;2024-01-07T03:38:03;7.90;;;3.67;;
63316;SDS011;49822;41.468;13.560;2024-01-07T03:40:31;8.50;;;3.85;;
63316;SDS011;49822;41.468;13.560;2024-01-07T03:42:57;10.98;;;3.65;;
63316;SDS011;49822;41.468;13.560;2024-01-07T03:45:24;9.02;;;4.50;;
63316;SDS011;49822;41.468;13.560;2024-01-07T03:47:55;9.25;;;4.57;;
63316;SDS011;49822;41.468;13.560;2024-01-07T03:50:23;9.48;;;5.32;;
63316;SDS011;49822;41.468;13.560;2024-01-07T03:52:49;9.32;;;5.15;;
63316;SDS011;49822;41.468;13.560;2024-01-07T03:55:15;12.27;;;5.32;;
63316;SDS011;49822;41.468;13.560;2024-01-07T03:57:43;10.25;;;5.93;;
63316;SDS011;49822;41.468;13.560;2024-01-07T04:00:09;9.75;;;4.85;;
63316;SDS011;49822;41.468;13.560;2024-01-07T04:02:38;13.75;;;5.90;;
63316;SDS011;49822;41.468;13.560;2024-01-07T04:05:05;10.70;;;5.38;;
63316;SDS011;49822;41.468;13.560;2024-01-07T04:07:32;19.75;;;9.57;;
63316;SDS011;49822;41.468;13.560;2024-01-07T04:09:58;12.75;;;5.88;;
63316;SDS011;49822;41.468;13.560;2024-01-07T04:12:31;12.05;;;4.68;;
63316;SDS011;49822;41.468;13.560;2024-01-07T04:15:02;7.47;;;4.03;;
63316;SDS011;49822;41.468;13.560;2024-01-07T04:17:29;12.30;;;4.82;;
63316;SDS011;49822;41.468;13.560;2024-01-07T04:19:58;9.85;;;4.60;;
63316;SDS011;49822;41.468;13.560;2024-01-07T04:22:24;8.23;;;4.22;;
63316;SDS011;49822;41.468;13.560;2024-01-07T04:24:50;6.82;;;3.97;;
63316;SDS011;49822;41.468;13.560;2024-01-07T04:27:17;10.68;;;4.10;;
63316;SDS011;49822;41.468;13.560;2024-01-07T04:29:43;14.05;;;7.07;;
63316;SDS011;49822;41.468;13.560;2024-01-07T04:32:09;13.07;;;6.53;;
63316;SDS011;49822;41.468;13.560;2024-01-07T04:34:35;26.95;;;11.32;;
63316;SDS011;49822;41.468;13.560;2024-01-07T04:37:01;28.73;;;12.90;;
63316;SDS011;49822;41.468;13.560;2024-01-07T04:39:28;31.35;;;13.52;;
63316;SDS011;49822;41.468;13.560;2024-01-07T04:41:54;29.48;;;14.02;;
63316;SDS011;49822;41.468;13.560;2024-01-07T04:44:21;21.65;;;9.05;;
63316;SDS011;49822;41.468;13.560;2024-01-07T04:46:47;14.45;;;5.38;;
63316;SDS011;49822;41.468;13.560;2024-01-07T04:49:15;15.68;;;6.07;;
63316;SDS011;49822;41.468;13.560;2024-01-07T04:51:41;16.65;;;7.50;;
63316;SDS011;49822;41.468;13.560;2024-01-07T04:57:54;15.98;;;6.07;;
63316;SDS011;49822;41.468;13.560;2024-01-07T05:00:23;19.13;;;7.85;;
63316;SDS011;49822;41.468;13.560;2024-01-07T05:02:54;28.63;;;8.50;;
63316;SDS011;49822;41.468;13.560;2024-01-07T05:05:20;34.60;;;10.15;;
63316;SDS011;49822;41.468;13.560;2024-01-07T05:07:46;42.53;;;9.57;;
63316;SDS011;49822;41.468;13.560;2024-01-07T05:10:13;89.10;;;14.75;;
63316;SDS011;49822;41.468;13.560;2024-01-07T05:12:39;71.00;;;14.82;;
63316;SDS011;49822;41.468;13.560;2024-01-07T05:15:05;30.45;;;13.07;;
63316;SDS011;49822;41.468;13.560;2024-01-07T05:17:31;33.10;;;13.98;;
63316;SDS011;49822;41.468;13.560;2024-01-07T05:20:00;87.35;;;14.52;;
63316;SDS011;49822;41.468;13.560;2024-01-07T05:22:26;63.70;;;12.45;;
63316;SDS011;49822;41.468;13.560;2024-01-07T05:24:53;108.38;;;14.35;;
63316;SDS011;49822;41.468;13.560;2024-01-07T05:27:19;69.60;;;13.13;;
63316;SDS011;49822;41.468;13.560;2024-01-07T05:29:45;83.05;;;14.07;;
63316;SDS011;49822;41.468;13.560;2024-01-07T05:32:13;60.40;;;13.63;;
63316;SDS011;49822;41.468;13.560;2024-01-07T05:34:39;48.40;;;15.40;;
63316;SDS011;49822;41.468;13.560;2024-01-07T05:37:05;176.70;;;17.80;;
63316;SDS011;49822;41.468;13.560;2024-01-07T05:39:31;27.55;;;14.00;;
63316;SDS011;49822;41.468;13.560;2024-01-07T05:41:57;31.73;;;12.70;;
63316;SDS011;49822;41.468;13.560;2024-01-07T05:44:24;55.35;;;14.02;;
63316;SDS011;49822;41.468;13.560;2024-01-07T05:46:50;71.05;;;14.43;;
63316;SDS011;49822;41.468;13.560;2024-01-07T05:49:16;45.35;;;12.30;;
63316;SDS011;49822;41.468;13.560;2024-01-07T05:51:43;45.95;;;13.52;;
63316;SDS011;49822;41.468;13.560;2024-01-07T05:54:10;109.15;;;13.70;;
63316;SDS011;49822;41.468;13.560;2024-01-07T05:56:41;79.15;;;12.98;;
63316;SDS011;49822;41.468;13.560;2024-01-07T05:59:07;72.25;;;16.83;;
63316;SDS011;49822;41.468;13.560;2024-01-07T06:01:34;28.30;;;11.20;;
63316;SDS011;49822;41.468;13.560;2024-01-07T06:04:00;87.70;;;11.55;;
63316;SDS011;49822;41.468;13.560;2024-01-07T06:06:28;45.05;;;10.48;;
63316;SDS011;49822;41.468;13.560;2024-01-07T06:08:54;44.88;;;9.50;;
63316;SDS011;49822;41.468;13.560;2024-01-07T06:11:20;50.03;;;7.80;;
63316;SDS011;49822;41.468;13.560;2024-01-07T06:13:47;88.32;;;7.97;;
63316;SDS011;49822;41.468;13.560;2024-01-07T06:16:13;34.60;;;7.43;;
63316;SDS011;49822;41.468;13.560;2024-01-07T06:18:40;25.15;;;6.88;;
63316;SDS011;49822;41.468;13.560;2024-01-07T06:21:06;64.18;;;8.57;;
63316;SDS011;49822;41.468;13.560;2024-01-07T06:23:32;13.65;;;6.88;;
63316;SDS011;49822;41.468;13.560;2024-01-07T06:25:59;28.92;;;6.93;;
63316;SDS011;49822;41.468;13.560;2024-01-07T06:28:25;10.57;;;5.95;;
63316;SDS011;49822;41.468;13.560;2024-01-07T06:30:53;31.63;;;6.78;;
63316;SDS011;49822;41.468;13.560;2024-01-07T06:33:24;23.52;;;6.63;;
63316;SDS011;49822;41.468;13.560;2024-01-07T06:35:50;25.13;;;5.28;;
63316;SDS011;49822;41.468;13.560;2024-01-07T06:38:17;16.13;;;5.45;;
63316;SDS011;49822;41.468;13.560;2024-01-07T06:40:43;25.90;;;4.90;;
63316;SDS011;49822;41.468;13.560;2024-01-07T06:43:21;10.50;;;4.82;;
63316;SDS011;49822;41.468;13.560;2024-01-07T06:45:48;9.77;;;4.88;;
63316;SDS011;49822;41.468;13.560;2024-01-07T06:48:19;12.70;;;6.60;;
63316;SDS011;49822;41.468;13.560;2024-01-07T06:50:45;14.35;;;6.28;;
63316;SDS011;49822;41.468;13.560;2024-01-07T06:53:11;13.07;;;6.82;;
63316;SDS011;49822;41.468;13.560;2024-01-07T06:55:39;13.13;;;6.18;;
63316;SDS011;49822;41.468;13.560;2024-01-07T06:58:05;33.60;;;18.63;;
63316;SDS011;49822;41.468;13.560;2024-01-07T07:00:33;14.90;;;8.23;;
63316;SDS011;49822;41.468;13.560;2024-01-07T07:03:01;14.80;;;8.35;;
63316;SDS011;49822;41.468;13.560;2024-01-07T07:05:27;14.93;;;7.53;;
63316;SDS011;49822;41.468;13.560;2024-01-07T07:07:53;10.60;;;6.07;;
63316;SDS011;49822;41.468;13.560;2024-01-07T07:10:19;9.27;;;5.18;;
63316;SDS011;49822;41.468;13.560;2024-01-07T07:12:45;7.80;;;4.25;;
63316;SDS011;49822;41.468;13.560;2024-01-07T07:15:12;14.18;;;5.82;;
63316;SDS011;49822;41.468;13.560;2024-01-07T07:17:38;11.63;;;5.88;;
63316;SDS011;49822;41.468;13.560;2024-01-07T07:20:06;9.88;;;6.00;;
63316;SDS011;49822;41.468;13.560;2024-01-07T07:22:33;12.02;;;5.60;;
63316;SDS011;49822;41.468;13.560;2024-01-07T07:24:59;19.35;;;8.25;;
63316;SDS011;49822;41.468;13.560;2024-01-07T07:27:26;15.65;;;9.57;;
63316;SDS011;49822;41.468;13.560;2024-01-07T07:29:52;13.45;;;7.10;;
63316;SDS011;49822;41.468;13.560;2024-01-07T07:32:18;16.40;;;6.30;;
63316;SDS011;49822;41.468;13.560;2024-01-07T07:34:47;12.82;;;7.28;;
63316;SDS011;49822;41.468;13.560;2024-01-07T07:37:13;10.25;;;5.75;;
63316;SDS011;49822;41.468;13.560;2024-01-07T07:39:39;12.25;;;6.07;;
63316;SDS011;49822;41.468;13.560;2024-01-07T07:42:06;16.83;;;7.70;;
63316;SDS011;49822;41.468;13.560;2024-01-07T07:44:32;13.15;;;8.32;;
63316;SDS011;49822;41.468;13.560;2024-01-07T07:46:58;14.88;;;8.63;;
63316;SDS011;49822;41.468;13.560;2024-01-07T07:49:25;16.20;;;9.02;;
63316;SDS011;49822;41.468;13.560;2024-01-07T07:51:52;16.42;;;8.68;;
63316;SDS011;49822;41.468;13.560;2024-01-07T07:54:18;15.95;;;8.75;;
63316;SDS011;49822;41.468;13.560;2024-01-07T07:56:44;47.88;;;9.07;;
63316;SDS011;49822;41.468;13.560;2024-01-07T07:59:11;14.77;;;9.20;;
63316;SDS011;49822;41.468;13.560;2024-01-07T08:01:39;23.55;;;12.77;;
63316;SDS011;49822;41.468;13.560;2024-01-07T08:04:10;13.68;;;7.63;;
63316;SDS011;49822;41.468;13.560;2024-01-07T08:06:49;11.50;;;6.75;;
63316;SDS011;49822;41.468;13.560;2024-01-07T08:09:36;10.30;;;5.82;;
63316;SDS011;49822;41.468;13.560;2024-01-07T08:12:05;10.80;;;6.53;;
63316;SDS011;49822;41.468;13.560;2024-01-07T08:14:32;15.65;;;8.50;;
63316;SDS011;49822;41.468;13.560;2024-01-07T08:16:59;20.83;;;12.68;;
63316;SDS011;49822;41.468;13.560;2024-01-07T08:19:26;20.05;;;13.57;;
63316;SDS011;49822;41.468;13.560;2024-01-07T08:21:54;19.45;;;12.55;;
63316;SDS011;49822;41.468;13.560;2024-01-07T08:24:22;15.75;;;10.55;;
63316;SDS011;49822;41.468;13.560;2024-01-07T08:26:49;21.00;;;12.40;;
63316;SDS011;49822;41.468;13.560;2024-01-07T08:29:22;20.38;;;13.23;;
63316;SDS011;49822;41.468;13.560;2024-01-07T08:31:49;20.58;;;11.00;;
63316;SDS011;49822;41.468;13.560;2024-01-07T08:34:17;13.65;;;7.80;;
63316;SDS011;49822;41.468;13.560;2024-01-07T08:36:44;17.08;;;9.10;;
63316;SDS011;49822;41.468;13.560;2024-01-07T08:39:14;15.30;;;8.37;;
63316;SDS011;49822;41.468;13.560;2024-01-07T08:41:41;18.85;;;10.45;;
63316;SDS011;49822;41.468;13.560;2024-01-07T08:44:09;16.52;;;9.55;;
63316;SDS011;49822;41.468;13.560;2024-01-07T08:46:38;18.75;;;10.32;;
63316;SDS011;49822;41.468;13.560;2024-01-07T08:49:13;17.23;;;9.05;;
63316;SDS011;49822;41.468;13.560;2024-01-07T08:51:39;18.98;;;9.38;;
63316;SDS011;49822;41.468;13.560;2024-01-07T08:54:06;14.95;;;8.10;;
63316;SDS011;49822;41.468;13.560;2024-01-07T08:56:32;16.30;;;9.07;;
63316;SDS011;49822;41.468;13.560;2024-01-07T08:59:01;15.80;;;9.27;;
63316;SDS011;49822;41.468;13.560;2024-01-07T09:01:30;18.30;;;9.60;;
63316;SDS011;49822;41.468;13.560;2024-01-07T09:07:48;15.48;;;9.23;;
63316;SDS011;49822;41.468;13.560;2024-01-07T09:10:17;19.27;;;10.75;;
63316;SDS011;49822;41.468;13.560;2024-01-07T09:12:44;20.75;;;11.77;;
63316;SDS011;49822;41.468;13.560;2024-01-07T09:15:11;19.27;;;11.40;;
63316;SDS011;49822;41.468;13.560;2024-01-07T09:17:39;23.08;;;12.48;;
63316;SDS011;49822;41.468;13.560;2024-01-07T09:20:07;26.50;;;13.48;;
63316;SDS011;49822;41.468;13.560;2024-01-07T09:22:34;22.90;;;12.55;;
63316;SDS011;49822;41.468;13.560;2024-01-07T09:25:04;22.15;;;12.73;;
63316;SDS011;49822;41.468;13.560;2024-01-07T09:27:32;24.13;;;12.75;;
63316;SDS011;49822;41.468;13.560;2024-01-07T09:29:59;22.33;;;12.48;;
63316;SDS011;49822;41.468;13.560;2024-01-07T09:32:25;24.85;;;13.32;;
63316;SDS011;49822;41.468;13.560;2024-01-07T09:34:52;23.10;;;13.32;;
63316;SDS011;49822;41.468;13.560;2024-01-07T09:37:19;29.60;;;13.80;;
63316;SDS011;49822;41.468;13.560;2024-01-07T09:39:47;22.77;;;13.07;;
63316;SDS011;49822;41.468;13.560;2024-01-07T09:42:15;24.48;;;12.13;;
63316;SDS011;49822;41.468;13.560;2024-01-07T09:44:46;22.17;;;13.25;;
63316;SDS011;49822;41.468;13.560;2024-01-07T09:47:14;22.73;;;12.88;;
63316;SDS011;49822;41.468;13.560;2024-01-07T09:49:42;21.52;;;12.88;;
63316;SDS011;49822;41.468;13.560;2024-01-07T09:52:10;26.67;;;14.35;;
63316;SDS011;49822;41.468;13.560;2024-01-07T09:54:38;26.73;;;14.38;;
63316;SDS011;49822;41.468;13.560;2024-01-07T09:57:06;27.35;;;15.50;;
63316;SDS011;49822;41.468;13.560;2024-01-07T09:59:34;24.52;;;13.68;;
63316;SDS011;49822;41.468;13.560;2024-01-07T10:02:02;24.27;;;13.43;;
63316;SDS011;49822;41.468;13.560;2024-01-07T10:04:28;24.88;;;14.70;;
63316;SDS011;49822;41.468;13.560;2024-01-07T10:06:57;26.52;;;15.20;;
63316;SDS011;49822;41.468;13.560;2024-01-07T10:09:24;26.13;;;14.25;;
63316;SDS011;49822;41.468;13.560;2024-01-07T10:11:54;23.45;;;14.20;;
63316;SDS011;49822;41.468;13.560;2024-01-07T10:14:21;23.42;;;13.40;;
63316;SDS011;49822;41.468;13.560;2024-01-07T10:16:52;24.33;;;14.27;;
63316;SDS011;49822;41.468;13.560;2024-01-07T10:19:24;20.13;;;12.13;;
63316;SDS011;49822;41.468;13.560;2024-01-07T10:22:01;22.08;;;12.90;;
63316;SDS011;49822;41.468;13.560;2024-01-07T10:24:46;22.33;;;13.18;;
63316;SDS011;49822;41.468;13.560;2024-01-07T10:27:14;18.63;;;11.13;;
63316;SDS011;49822;41.468;13.560;2024-01-07T10:29:40;19.40;;;11.57;;
63316;SDS011;49822;41.468;13.560;2024-01-07T10:32:06;20.85;;;12.25;;
63316;SDS011;49822;41.468;13.560;2024-01-07T10:34:36;21.05;;;12.45;;
63316;SDS011;49822;41.468;13.560;2024-01-07T10:37:03;20.98;;;12.02;;
63316;SDS011;49822;41.468;13.560;2024-01-07T10:39:34;19.25;;;11.40;;
63316;SDS011;49822;41.468;13.560;2024-01-07T10:42:00;19.08;;;11.27;;
63316;SDS011;49822;41.468;13.560;2024-01-07T10:44:31;24.00;;;14.38;;
63316;SDS011;49822;41.468;13.560;2024-01-07T10:46:59;26.17;;;14.40;;
63316;SDS011;49822;41.468;13.560;2024-01-07T10:49:26;21.35;;;12.75;;
63316;SDS011;49822;41.468;13.560;2024-01-07T10:52:07;19.50;;;12.27;;
63316;SDS011;49822;41.468;13.560;2024-01-07T10:54:56;23.65;;;12.32;;
63316;SDS011;49822;41.468;13.560;2024-01-07T10:57:36;19.75;;;10.88;;
63316;SDS011;49822;41.468;13.560;2024-01-07T11:00:09;21.02;;;11.38;;
63316;SDS011;49822;41.468;13.560;2024-01-07T11:08:06;21.77;;;11.65;;
63316;SDS011;49822;41.468;13.560;2024-01-07T11:10:54;34.03;;;17.88;;
63316;SDS011;49822;41.468;13.560;2024-01-07T11:13:34;21.88;;;12.30;;
63316;SDS011;49822;41.468;13.560;2024-01-07T11:16:09;19.85;;;11.25;;
63316;SDS011;49822;41.468;13.560;2024-01-07T11:18:40;16.27;;;9.85;;
63316;SDS011;49822;41.468;13.560;2024-01-07T11:21:21;17.95;;;10.88;;
63316;SDS011;49822;41.468;13.560;2024-01-07T11:23:50;15.20;;;9.00;;
63316;SDS011;49822;41.468;13.560;2024-01-07T11:26:19;13.23;;;8.18;;
63316;SDS011;49822;41.468;13.560;2024-01-07T11:28:54;12.65;;;7.68;;
63316;SDS011;49822;41.468;13.560;2024-01-07T11:31:42;14.90;;;8.45;;
63316;SDS011;49822;41.468;13.560;2024-01-07T11:34:09;14.63;;;8.35;;
63316;SDS011;49822;41.468;13.560;2024-01-07T11:36:36;18.65;;;12.88;;
63316;SDS011;49822;41.468;13.560;2024-01-07T11:39:03;20.88;;;11.50;;
63316;SDS011;49822;41.468;13.560;2024-01-07T11:41:34;20.30;;;11.75;;
63316;SDS011;49822;41.468;13.560;2024-01-07T11:44:02;18.95;;;11.80;;
63316;SDS011;49822;41.468;13.560;2024-01-07T11:46:29;20.20;;;12.23;;
63316;SDS011;49822;41.468;13.560;2024-01-07T11:48:57;19.17;;;11.52;;
63316;SDS011;49822;41.468;13.560;2024-01-07T11:51:26;20.60;;;12.05;;
63316;SDS011;49822;41.468;13.560;2024-01-07T11:53:57;19.02;;;12.45;;
63316;SDS011;49822;41.468;13.560;2024-01-07T11:56:24;17.52;;;11.10;;
63316;SDS011;49822;41.468;13.560;2024-01-07T11:58:54;22.40;;;10.98;;
63316;SDS011;49822;41.468;13.560;2024-01-07T12:01:23;17.08;;;9.93;;
63316;SDS011;49822;41.468;13.560;2024-01-07T12:03:51;19.30;;;11.23;;
63316;SDS011;49822;41.468;13.560;2024-01-07T12:06:18;16.00;;;9.70;;
63316;SDS011;49822;41.468;13.560;2024-01-07T12:08:44;19.33;;;9.73;;
63316;SDS011;49822;41.468;13.560;2024-01-07T12:11:11;16.95;;;9.45;;
63316;SDS011;49822;41.468;13.560;2024-01-07T12:13:39;17.00;;;9.20;;
63316;SDS011;49822;41.468;13.560;2024-01-07T12:16:08;13.65;;;8.50;;
63316;SDS011;49822;41.468;13.560;2024-01-07T12:18:36;15.63;;;9.25;;
63316;SDS011;49822;41.468;13.560;2024-01-07T12:21:06;15.52;;;9.07;;
63316;SDS011;49822;41.468;13.560;2024-01-07T12:23:38;17.77;;;9.57;;
63316;SDS011;49822;41.468;13.560;2024-01-07T12:26:08;16.35;;;9.48;;
63316;SDS011;49822;41.468;13.560;2024-01-07T12:28:39;17.20;;;9.40;;
63316;SDS011;49822;41.468;13.560;2024-01-07T12:31:05;16.25;;;9.18;;
63316;SDS011;49822;41.468;13.560;2024-01-07T12:33:33;19.80;;;10.77;;
63316;SDS011;49822;41.468;13.560;2024-01-07T12:35:59;18.98;;;11.40;;
63316;SDS011;49822;41.468;13.560;2024-01-07T12:38:29;18.85;;;11.18;;
63316;SDS011;49822;41.468;13.560;2024-01-07T12:40:59;19.65;;;11.75;;
63316;SDS011;49822;41.468;13.560;2024-01-07T12:43:25;18.88;;;11.48;;
63316;SDS011;49822;41.468;13.560;2024-01-07T12:45:52;19.10;;;11.60;;
63316;SDS011;49822;41.468;13.560;2024-01-07T12:48:37;22.30;;;13.65;;
63316;SDS011;49822;41.468;13.560;2024-01-07T12:51:03;19.48;;;11.63;;
63316;SDS011;49822;41.468;13.560;2024-01-07T12:53:30;16.48;;;11.10;;
63316;SDS011;49822;41.468;13.560;2024-01-07T12:55:57;22.88;;;14.00;;
63316;SDS011;49822;41.468;13.560;2024-01-07T12:58:23;23.17;;;14.90;;
63316;SDS011;49822;41.468;13.560;2024-01-07T13:00:50;21.17;;;13.15;;
63316;SDS011;49822;41.468;13.560;2024-01-07T13:03:17;24.20;;;13.20;;
63316;SDS011;49822;41.468;13.560;2024-01-07T13:05:44;22.73;;;13.80;;
63316;SDS011;49822;41.468;13.560;2024-01-07T13:08:12;21.38;;;13.73;;
63316;SDS011;49822;41.468;13.560;2024-01-07T13:10:39;21.95;;;13.20;;
63316;SDS011;49822;41.468;13.560;2024-01-07T13:13:05;31.98;;;18.42;;
63316;SDS011;49822;41.468;13.560;2024-01-07T13:15:33;30.80;;;18.80;;
63316;SDS011;49822;41.468;13.560;2024-01-07T13:18:03;22.40;;;13.13;;
63316;SDS011;49822;41.468;13.560;2024-01-07T13:20:30;20.20;;;12.90;;
63316;SDS011;49822;41.468;13.560;2024-01-07T13:22:56;19.52;;;10.77;;
63316;SDS011;49822;41.468;13.560;2024-01-07T13:25:22;16.92;;;9.13;;
63316;SDS011;49822;41.468;13.560;2024-01-07T13:27:51;14.90;;;9.27;;
63316;SDS011;49822;41.468;13.560;2024-01-07T13:30:25;16.05;;;9.45;;
63316;SDS011;49822;41.468;13.560;2024-01-07T13:33:00;14.68;;;8.25;;
63316;SDS011;49822;41.468;13.560;2024-01-07T13:35:31;13.85;;;8.40;;
63316;SDS011;49822;41.468;13.560;2024-01-07T13:38:00;15.48;;;8.43;;
63316;SDS011;49822;41.468;13.560;2024-01-07T13:40:29;12.90;;;8.27;;
63316;SDS011;49822;41.468;13.560;2024-01-07T13:42:56;15.00;;;8.80;;
63316;SDS011;49822;41.468;13.560;2024-01-07T13:45:22;16.92;;;10.52;;
63316;SDS011;49822;41.468;13.560;2024-01-07T13:47:54;12.80;;;8.07;;
63316;SDS011;49822;41.468;13.560;2024-01-07T13:50:23;14.18;;;8.68;;
63316;SDS011;49822;41.468;13.560;2024-01-07T13:53:01;15.57;;;9.63;;
63316;SDS011;49822;41.468;13.560;2024-01-07T13:55:32;17.40;;;10.40;;
63316;SDS011;49822;41.468;13.560;2024-01-07T13:57:59;37.22;;;10.82;;
63316;SDS011;49822;41.468;13.560;2024-01-07T14:00:26;14.48;;;8.65;;
63316;SDS011;49822;41.468;13.560;2024-01-07T14:02:59;15.77;;;8.88;;
63316;SDS011;49822;41.468;13.560;2024-01-07T14:05:26;14.23;;;8.50;;
63316;SDS011;49822;41.468;13.560;2024-01-07T14:07:52;17.15;;;8.82;;
63316;SDS011;49822;41.468;13.560;2024-01-07T14:10:18;15.38;;;7.95;;
63316;SDS011;49822;41.468;13.560;2024-01-07T14:12:50;14.63;;;7.38;;
63316;SDS011;49822;41.468;13.560;2024-01-07T14:15:17;12.18;;;7.03;;
63316;SDS011;49822;41.468;13.560;2024-01-07T14:17:48;14.15;;;8.02;;
63316;SDS011;49822;41.468;13.560;2024-01-07T14:20:15;13.75;;;7.55;;
63316;SDS011;49822;41.468;13.560;2024-01-07T14:22:41;14.82;;;8.60;;
63316;SDS011;49822;41.468;13.560;2024-01-07T14:25:08;18.25;;;10.10;;
63316;SDS011;49822;41.468;13.560;2024-01-07T14:27:34;15.88;;;9.30;;
63316;SDS011;49822;41.468;13.560;2024-01-07T14:30:08;16.92;;;8.82;;
63316;SDS011;49822;41.468;13.560;2024-01-07T14:32:34;15.32;;;8.38;;
63316;SDS011;49822;41.468;13.560;2024-01-07T14:35:02;13.13;;;7.97;;
63316;SDS011;49822;41.468;13.560;2024-01-07T14:37:31;13.45;;;7.53;;
63316;SDS011;49822;41.468;13.560;2024-01-07T14:39:57;13.82;;;7.60;;
63316;SDS011;49822;41.468;13.560;2024-01-07T14:42:23;16.58;;;7.93;;
63316;SDS011;49822;41.468;13.560;2024-01-07T14:44:50;15.70;;;10.25;;
63316;SDS011;49822;41.468;13.560;2024-01-07T14:47:16;19.55;;;13.65;;